Time;durP1;ratioP1;P1;durP2;ratioP2;P2;SDS_P1;SDS_P2;PMS_P1;PMS_P2;Temp;Humidity;BMP_temperature;BMP_pressure;BME280_temperature;BME280_humidity;BME280_pressure;Samples;Min_cycle;Max_cycle;Signal;HPM_P1;HPM_P2
2023/03/04 00:02:10;;;;;;;40.93;20.37;;;2.90;99.90;;;;;;5070364;28;20215;-76
2023/03/04 00:04:35;;;;;;;43.10;21.17;;;2.90;99.90;;;;;;5072786;28;20251;-76
2023/03/04 00:07:01;;;;;;;43.03;20.10;;;2.90;99.90;;;;;;5070795;28;20260;-76
2023/03/04 00:09:26;;;;;;;42.47;19.93;;;2.80;99.90;;;;;;5067652;28;20213;-76
2023/03/04 00:11:52;;;;;;;49.73;19.90;;;2.80;99.90;;;;;;5069119;28;20230;-77
2023/03/04 00:14:18;;;;;;;41.00;19.77;;;2.80;99.90;;;;;;5071908;28;20700;-76
2023/03/04 00:16:43;;;;;;;38.23;19.53;;;2.90;99.90;;;;;;5070957;28;20171;-76
2023/03/04 00:19:10;;;;;;;42.30;19.60;;;2.90;99.90;;;;;;5067549;28;20218;-76
2023/03/04 00:21:35;;;;;;;40.73;19.83;;;3.00;99.90;;;;;;5071837;28;20351;-76
2023/03/04 00:24:01;;;;;;;44.53;20.37;;;3.00;99.90;;;;;;5065976;28;20225;-76
2023/03/04 00:26:26;;;;;;;37.40;19.07;;;3.00;99.90;;;;;;5053820;28;20212;-78
2023/03/04 00:28:52;;;;;;;37.00;18.43;;;3.10;99.90;;;;;;5072116;28;20260;-77
2023/03/04 00:31:18;;;;;;;40.80;20.23;;;3.10;99.90;;;;;;5071385;28;20210;-76
2023/03/04 00:33:43;;;;;;;39.87;19.10;;;3.10;99.90;;;;;;5067613;28;20291;-76
2023/03/04 00:36:10;;;;;;;39.27;19.03;;;3.00;99.90;;;;;;5053508;28;20277;-77
2023/03/04 00:38:36;;;;;;;39.67;18.10;;;3.10;99.90;;;;;;5070073;28;20731;-75
2023/03/04 00:41:01;;;;;;;45.23;18.87;;;3.10;99.90;;;;;;5071028;28;20217;-75
2023/03/04 00:43:27;;;;;;;38.10;17.90;;;3.20;99.90;;;;;;5071950;28;20270;-77
2023/03/04 00:45:53;;;;;;;35.50;15.90;;;3.20;99.90;;;;;;5071523;28;20556;-77
2023/03/04 00:48:18;;;;;;;36.00;17.23;;;3.20;99.90;;;;;;5066784;28;20627;-76
2023/03/04 00:50:44;;;;;;;36.87;17.53;;;3.20;99.90;;;;;;5070897;28;20592;-76
2023/03/04 00:53:10;;;;;;;38.67;17.63;;;3.30;99.90;;;;;;5052958;28;20187;-77
2023/03/04 00:55:35;;;;;;;35.17;17.00;;;3.20;99.90;;;;;;5053705;28;20220;-76
2023/03/04 00:58:01;;;;;;;35.17;15.50;;;3.20;99.90;;;;;;5070035;28;20733;-76
2023/03/04 01:00:27;;;;;;;32.50;15.47;;;3.30;99.90;;;;;;5052773;28;20214;-77
2023/03/04 01:02:53;;;;;;;39.23;17.63;;;3.30;99.90;;;;;;5070830;28;20237;-76
2023/03/04 01:05:18;;;;;;;30.93;16.10;;;3.30;99.90;;;;;;5052763;28;20217;-76
2023/03/04 01:07:44;;;;;;;34.63;14.93;;;3.30;99.90;;;;;;5071224;28;20207;-75
2023/03/04 01:10:12;;;;;;;38.47;16.00;;;3.20;99.90;;;;;;5070386;28;20211;-76
2023/03/04 01:12:41;;;;;;;34.07;14.50;;;3.30;99.90;;;;;;5070849;28;20222;-77
2023/03/04 01:15:09;;;;;;;35.63;15.47;;;3.30;99.90;;;;;;5070526;28;20205;-76
2023/03/04 01:17:35;;;;;;;34.40;14.27;;;3.40;99.90;;;;;;5070176;28;20210;-77
2023/03/04 01:20:01;;;;;;;31.43;13.30;;;3.40;99.90;;;;;;5069167;28;20207;-76
2023/03/04 01:22:27;;;;;;;31.83;12.53;;;3.40;99.90;;;;;;5048958;28;20245;-76
2023/03/04 01:24:52;;;;;;;29.03;12.43;;;3.50;99.90;;;;;;5070823;28;20756;-77
2023/03/04 01:27:18;;;;;;;33.13;12.40;;;3.50;99.90;;;;;;5052143;28;20204;-77
2023/03/04 01:29:43;;;;;;;35.03;13.07;;;3.50;99.90;;;;;;5052306;28;20567;-77
2023/03/04 01:32:09;;;;;;;29.87;11.73;;;3.50;99.90;;;;;;5069981;28;20181;-77
2023/03/04 01:34:35;;;;;;;31.57;12.33;;;3.50;99.90;;;;;;5069400;28;20220;-76
2023/03/04 01:37:01;;;;;;;31.83;12.90;;;3.50;99.90;;;;;;5052016;28;20208;-76
2023/03/04 01:39:26;;;;;;;27.33;12.27;;;3.60;99.90;;;;;;5068265;28;20257;-77
2023/03/04 01:41:52;;;;;;;28.80;11.50;;;3.60;99.90;;;;;;5070065;28;20235;-76
2023/03/04 01:44:18;;;;;;;27.90;11.70;;;3.60;99.90;;;;;;5070180;28;20235;-76
2023/03/04 01:46:48;;;;;;;29.80;11.70;;;3.70;99.90;;;;;;5049527;28;20342;-76
2023/03/04 01:49:15;;;;;;;27.47;10.63;;;3.70;99.90;;;;;;5070063;28;20248;-76
2023/03/04 01:51:48;;;;;;;21.80;9.67;;;3.70;99.90;;;;;;5048393;28;20211;-76
2023/03/04 01:54:18;;;;;;;31.87;11.27;;;3.70;99.90;;;;;;5070000;28;20287;-77
2023/03/04 01:56:45;;;;;;;21.47;9.47;;;3.80;99.90;;;;;;5052182;28;20224;-76
2023/03/04 01:59:16;;;;;;;24.33;10.43;;;3.80;99.90;;;;;;5048850;28;20549;-75
2023/03/04 02:01:44;;;;;;;27.23;9.33;;;3.80;99.90;;;;;;5066195;28;20275;-76
2023/03/04 02:04:10;;;;;;;24.10;9.53;;;3.80;99.90;;;;;;5069816;28;20339;-76
2023/03/04 02:06:37;;;;;;;24.40;9.37;;;3.80;99.90;;;;;;5070118;28;20201;-77
2023/03/04 02:09:04;;;;;;;23.80;8.93;;;3.90;99.90;;;;;;5069422;28;20202;-74
2023/03/04 02:11:30;;;;;;;25.23;11.30;;;3.90;99.90;;;;;;5051371;28;20285;-77
2023/03/04 02:13:56;;;;;;;21.67;9.00;;;3.90;99.90;;;;;;5070268;28;20658;-75
2023/03/04 02:16:21;;;;;;;25.60;9.20;;;3.90;99.90;;;;;;5069196;28;20291;-77
2023/03/04 02:18:47;;;;;;;31.70;9.43;;;3.90;99.90;;;;;;5069371;28;20293;-77
2023/03/04 02:21:18;;;;;;;28.60;8.43;;;3.90;99.90;;;;;;5069121;28;20312;-77
2023/03/04 02:24:14;;;;;;;33.07;9.43;;;4.00;99.90;;;;;;5069509;28;20710;-76
2023/03/04 02:26:42;;;;;;;22.07;8.23;;;4.00;99.90;;;;;;5069634;28;20204;-77
2023/03/04 02:29:09;;;;;;;22.37;8.23;;;4.00;99.90;;;;;;5069233;28;20173;-76
2023/03/04 02:31:36;;;;;;;31.40;9.23;;;4.00;99.90;;;;;;5069918;28;20200;-77
2023/03/04 02:34:06;;;;;;;20.77;8.23;;;4.00;99.90;;;;;;5051439;28;20228;-77
2023/03/04 02:36:33;;;;;;;25.53;9.50;;;4.10;99.90;;;;;;5068026;28;20502;-77
2023/03/04 02:39:26;;;;;;;19.80;7.57;;;4.10;99.90;;;;;;5048324;28;20309;-78
2023/03/04 02:41:53;;;;;;;20.07;8.17;;;4.20;99.90;;;;;;5041323;28;20604;-76
2023/03/04 02:44:27;;;;;;;24.33;8.30;;;4.10;99.90;;;;;;5069342;28;20684;-76
2023/03/04 02:46:53;;;;;;;18.33;6.77;;;4.20;99.90;;;;;;5052697;28;20237;-76
2023/03/04 02:49:20;;;;;;;15.27;6.63;;;4.20;99.90;;;;;;5072657;28;20205;-76
2023/03/04 02:51:49;;;;;;;23.03;7.77;;;4.20;99.90;;;;;;5072756;28;20213;-76
2023/03/04 02:54:20;;;;;;;18.93;6.97;;;4.20;99.90;;;;;;5073053;28;20202;-76
2023/03/04 02:56:53;;;;;;;15.23;6.63;;;4.20;99.90;;;;;;5069977;28;20206;-76
2023/03/04 02:59:20;;;;;;;32.43;8.60;;;4.20;99.90;;;;;;5071780;28;20310;-76
2023/03/04 03:01:46;;;;;;;20.33;7.13;;;4.20;99.90;;;;;;5073470;28;20675;-76
2023/03/04 03:04:12;;;;;;;24.33;7.10;;;4.30;99.90;;;;;;5072693;28;20209;-75
2023/03/04 03:06:38;;;;;;;22.40;7.13;;;4.30;99.90;;;;;;5072862;28;20553;-76
2023/03/04 03:09:05;;;;;;;21.53;7.40;;;4.30;99.90;;;;;;5054613;28;20203;-76
2023/03/04 03:11:30;;;;;;;19.37;7.23;;;4.30;99.90;;;;;;5072200;28;20209;-76
2023/03/04 03:13:56;;;;;;;30.93;8.03;;;4.30;99.90;;;;;;5073320;28;20181;-75
2023/03/04 03:16:22;;;;;;;26.17;7.67;;;4.30;99.90;;;;;;5072487;28;20256;-76
2023/03/04 03:18:48;;;;;;;23.63;7.20;;;4.30;99.90;;;;;;5072094;28;20205;-76
2023/03/04 03:21:13;;;;;;;20.63;7.17;;;4.30;99.90;;;;;;5049946;28;20955;-76
2023/03/04 03:23:39;;;;;;;23.43;7.50;;;4.30;99.90;;;;;;5072480;28;20530;-75
2023/03/04 03:26:05;;;;;;;22.07;6.97;;;4.30;99.90;;;;;;5054217;28;20266;-75
2023/03/04 03:28:30;;;;;;;18.37;6.57;;;4.30;99.90;;;;;;5054620;28;20176;-77
2023/03/04 03:30:56;;;;;;;17.07;6.87;;;4.30;99.90;;;;;;5072294;28;20210;-74
2023/03/04 03:33:22;;;;;;;19.30;7.07;;;4.30;99.90;;;;;;5072050;28;20783;-76
2023/03/04 03:35:47;;;;;;;25.03;6.97;;;4.40;99.90;;;;;;5072053;28;20574;-76
2023/03/04 03:38:13;;;;;;;21.93;6.97;;;4.30;99.90;;;;;;5054091;28;20564;-76
2023/03/04 03:40:39;;;;;;;20.20;6.90;;;4.30;99.90;;;;;;5072176;28;20586;-76
2023/03/04 03:43:05;;;;;;;23.47;6.60;;;4.40;99.90;;;;;;5072280;28;20778;-76
2023/03/04 03:45:30;;;;;;;22.80;6.60;;;4.30;99.90;;;;;;5071964;28;20703;-76
2023/03/04 03:47:56;;;;;;;18.27;7.30;;;4.40;99.90;;;;;;5051534;28;20234;-75
2023/03/04 03:50:22;;;;;;;17.17;6.13;;;4.40;99.90;;;;;;5052386;28;20222;-77
2023/03/04 03:52:47;;;;;;;18.23;5.50;;;4.40;99.90;;;;;;5070757;28;20220;-77
2023/03/04 03:55:13;;;;;;;19.70;5.73;;;4.40;99.90;;;;;;5077872;28;20197;-77
2023/03/04 03:57:39;;;;;;;18.87;6.47;;;4.40;99.90;;;;;;5069444;28;20226;-74
2023/03/04 04:00:06;;;;;;;18.83;6.03;;;4.40;99.90;;;;;;5064263;28;20326;-76
2023/03/04 04:02:31;;;;;;;20.03;5.37;;;4.40;99.90;;;;;;5068125;28;20217;-76
2023/03/04 04:04:57;;;;;;;16.40;5.40;;;4.40;99.90;;;;;;5053203;28;20668;-76
2023/03/04 04:07:23;;;;;;;19.60;6.03;;;4.40;99.90;;;;;;5068618;28;20648;-75
2023/03/04 04:09:48;;;;;;;25.73;6.33;;;4.40;99.90;;;;;;5072349;28;20206;-77
2023/03/04 04:12:15;;;;;;;21.20;6.87;;;4.40;99.90;;;;;;5082924;28;20204;-76
2023/03/04 04:14:41;;;;;;;22.53;6.00;;;4.40;99.90;;;;;;5089457;28;20232;-78
2023/03/04 04:17:08;;;;;;;20.00;5.60;;;4.40;99.90;;;;;;5093488;28;20178;-76
2023/03/04 04:19:33;;;;;;;19.70;6.97;;;4.50;99.90;;;;;;5094340;28;20190;-77
2023/03/04 04:21:59;;;;;;;20.07;5.83;;;4.40;99.90;;;;;;5092782;28;20241;-77
2023/03/04 04:24:25;;;;;;;14.10;4.67;;;4.50;99.90;;;;;;5091739;28;20202;-77
2023/03/04 04:26:50;;;;;;;17.40;5.27;;;4.50;99.90;;;;;;5092825;28;20218;-77
2023/03/04 04:29:16;;;;;;;16.43;4.40;;;4.50;99.90;;;;;;5073169;28;20178;-76
2023/03/04 04:31:42;;;;;;;19.07;5.40;;;4.50;99.90;;;;;;5091268;28;20163;-77
2023/03/04 04:34:08;;;;;;;15.43;4.97;;;4.50;99.90;;;;;;5080556;28;20210;-77
2023/03/04 04:36:33;;;;;;;18.50;5.53;;;4.50;99.90;;;;;;5053193;28;20213;-76
2023/03/04 04:38:59;;;;;;;21.17;5.57;;;4.50;99.90;;;;;;5070972;28;20212;-76
2023/03/04 04:41:30;;;;;;;13.97;4.97;;;4.50;99.90;;;;;;5047492;28;20309;-76
2023/03/04 04:43:56;;;;;;;18.00;6.40;;;4.50;99.90;;;;;;5051193;28;20555;-75
2023/03/04 04:46:22;;;;;;;20.10;5.67;;;4.50;99.90;;;;;;5051057;28;20240;-77
2023/03/04 04:48:47;;;;;;;20.80;5.60;;;4.60;99.90;;;;;;5068029;28;20260;-76
2023/03/04 04:51:13;;;;;;;20.50;5.90;;;4.50;99.90;;;;;;5049830;28;20335;-77
2023/03/04 04:53:39;;;;;;;21.17;5.83;;;4.50;99.90;;;;;;5070696;28;20289;-77
2023/03/04 04:56:14;;;;;;;18.17;5.60;;;4.60;99.90;;;;;;5070388;28;20177;-77
2023/03/04 04:58:40;;;;;;;17.00;5.20;;;4.50;99.90;;;;;;5066887;28;20171;-76
2023/03/04 05:01:06;;;;;;;18.50;6.82;;;4.50;99.90;;;;;;5063427;28;20528;-77
2023/03/04 05:03:34;;;;;;;14.17;4.97;;;4.60;99.90;;;;;;5070322;28;20680;-77
2023/03/04 05:05:59;;;;;;;22.30;6.47;;;4.60;99.90;;;;;;5070685;28;20579;-75
2023/03/04 05:08:25;;;;;;;21.00;5.77;;;4.60;99.90;;;;;;5070092;28;20237;-75
2023/03/04 05:10:52;;;;;;;18.83;5.20;;;4.60;99.90;;;;;;5049644;28;20195;-76
2023/03/04 05:13:18;;;;;;;11.27;4.77;;;4.60;99.90;;;;;;5070054;28;20218;-75
2023/03/04 05:15:44;;;;;;;18.63;4.80;;;4.60;99.90;;;;;;5050244;28;20206;-74
2023/03/04 05:18:10;;;;;;;17.87;5.50;;;4.60;99.90;;;;;;5052400;28;20348;-74
2023/03/04 05:20:36;;;;;;;18.17;4.70;;;4.60;99.90;;;;;;5066306;28;20308;-77
2023/03/04 05:23:01;;;;;;;15.20;4.40;;;4.60;99.90;;;;;;5047202;28;20179;-76
2023/03/04 05:25:27;;;;;;;15.87;4.73;;;4.60;99.90;;;;;;5047448;28;20579;-76
2023/03/04 05:27:53;;;;;;;18.47;4.23;;;4.60;99.90;;;;;;5069675;28;20210;-75
2023/03/04 05:30:18;;;;;;;13.17;5.03;;;4.60;99.90;;;;;;5065295;28;20241;-77
2023/03/04 05:32:44;;;;;;;16.17;4.43;;;4.70;99.90;;;;;;5049469;28;20314;-76
2023/03/04 05:35:09;;;;;;;17.97;4.60;;;4.70;99.90;;;;;;5068138;28;20501;-76
2023/03/04 05:37:35;;;;;;;16.80;4.03;;;4.70;99.90;;;;;;5068531;28;20175;-76
2023/03/04 05:40:01;;;;;;;13.97;3.90;;;4.80;99.90;;;;;;5070103;28;20305;-76
2023/03/04 05:42:26;;;;;;;15.80;4.77;;;4.80;99.90;;;;;;5044727;28;20700;-76
2023/03/04 05:44:52;;;;;;;13.87;4.13;;;4.80;99.90;;;;;;5069166;28;20226;-76
2023/03/04 05:47:18;;;;;;;15.30;4.73;;;4.80;99.90;;;;;;5069599;28;20225;-76
2023/03/04 05:49:43;;;;;;;15.37;4.57;;;4.80;99.90;;;;;;5069583;28;20240;-76
2023/03/04 05:52:09;;;;;;;9.43;3.57;;;4.80;99.90;;;;;;5069694;28;20216;-77
2023/03/04 05:54:35;;;;;;;13.10;4.27;;;4.80;99.90;;;;;;5048775;28;20237;-76
2023/03/04 05:57:01;;;;;;;11.23;3.67;;;4.80;99.90;;;;;;5069900;28;20203;-75
2023/03/04 05:59:27;;;;;;;10.27;4.17;;;4.80;99.90;;;;;;5066810;28;20228;-75
2023/03/04 06:01:52;;;;;;;16.73;3.47;;;4.90;99.90;;;;;;5047800;28;20198;-76
2023/03/04 06:04:18;;;;;;;16.45;5.10;;;4.80;99.90;;;;;;5046656;28;20409;-77
2023/03/04 06:06:47;;;;;;;11.47;4.30;;;4.80;99.90;;;;;;5069664;28;20214;-76
2023/03/04 06:09:13;;;;;;;11.27;3.50;;;4.80;99.90;;;;;;5067825;28;20272;-75
2023/03/04 06:11:40;;;;;;;9.60;3.83;;;4.90;99.90;;;;;;5051037;28;20245;-77
2023/03/04 06:14:06;;;;;;;18.13;4.17;;;4.80;99.90;;;;;;5060287;28;20202;-76
2023/03/04 06:16:32;;;;;;;11.07;3.33;;;4.90;99.90;;;;;;5061338;28;21175;-77
2023/03/04 06:18:58;;;;;;;11.47;3.63;;;4.90;99.90;;;;;;5049250;28;20204;-75
2023/03/04 06:21:23;;;;;;;14.20;3.73;;;4.90;99.90;;;;;;5051235;28;20744;-77
2023/03/04 06:23:49;;;;;;;11.03;3.97;;;4.90;99.90;;;;;;5070101;28;20293;-76
2023/03/04 06:26:15;;;;;;;16.37;3.37;;;4.90;99.90;;;;;;5055596;28;20174;-76
2023/03/04 06:28:41;;;;;;;10.43;3.70;;;4.90;99.90;;;;;;5069844;28;20665;-76
2023/03/04 06:31:07;;;;;;;9.43;2.90;;;4.90;99.90;;;;;;5054600;28;20207;-76
2023/03/04 06:33:33;;;;;;;10.07;3.40;;;5.00;99.90;;;;;;5073601;28;20218;-76
2023/03/04 06:35:58;;;;;;;11.57;3.13;;;5.00;99.90;;;;;;5055432;28;20272;-76
2023/03/04 06:38:25;;;;;;;12.70;3.30;;;4.90;99.90;;;;;;5065890;28;20222;-76
2023/03/04 06:40:51;;;;;;;15.23;3.83;;;5.00;99.90;;;;;;5070075;28;20234;-77
2023/03/04 06:43:17;;;;;;;8.70;3.63;;;5.00;99.90;;;;;;5072750;28;20712;-78
2023/03/04 06:45:42;;;;;;;10.07;3.53;;;5.00;99.90;;;;;;5073666;28;20206;-76
2023/03/04 06:48:08;;;;;;;14.30;3.33;;;5.00;99.90;;;;;;5073728;28;20200;-77
2023/03/04 06:50:34;;;;;;;8.93;3.43;;;5.00;99.90;;;;;;5070597;28;20303;-77
2023/03/04 06:52:59;;;;;;;12.33;4.53;;;4.90;99.90;;;;;;5050987;28;20175;-77
2023/03/04 06:55:25;;;;;;;11.90;3.53;;;5.00;99.90;;;;;;5073419;28;20540;-77
2023/03/04 06:57:51;;;;;;;11.63;3.07;;;5.00;99.90;;;;;;5073467;28;20799;-76
2023/03/04 07:00:17;;;;;;;14.40;3.97;;;5.10;99.90;;;;;;5050932;28;20205;-77
2023/03/04 07:02:42;;;;;;;10.57;4.00;;;5.10;99.90;;;;;;5071773;28;20202;-78
2023/03/04 07:05:10;;;;;;;7.93;3.43;;;5.10;99.90;;;;;;5068254;28;20205;-78
2023/03/04 07:07:36;;;;;;;9.63;3.30;;;5.10;99.90;;;;;;5055054;28;20179;-78
2023/03/04 07:10:02;;;;;;;12.43;4.53;;;5.10;99.90;;;;;;5067193;28;20210;-77
2023/03/04 07:12:28;;;;;;;12.37;3.37;;;5.10;99.90;;;;;;5052584;28;20229;-77
2023/03/04 07:14:53;;;;;;;16.73;4.10;;;5.10;99.90;;;;;;5066438;28;20228;-77
2023/03/04 07:17:19;;;;;;;14.80;3.53;;;5.10;99.90;;;;;;5055498;28;20216;-77
2023/03/04 07:19:44;;;;;;;10.00;4.00;;;5.10;99.90;;;;;;5070975;28;20194;-76
2023/03/04 07:22:10;;;;;;;8.40;2.90;;;5.10;99.90;;;;;;5070498;28;20268;-77
2023/03/04 07:24:36;;;;;;;9.53;3.63;;;5.20;99.90;;;;;;5069650;28;20280;-76
2023/03/04 07:27:01;;;;;;;10.23;4.17;;;5.30;99.90;;;;;;5075125;28;20696;-77
2023/03/04 07:29:27;;;;;;;7.60;2.60;;;5.30;99.90;;;;;;5078217;28;20222;-77
2023/03/04 07:31:53;;;;;;;8.67;3.33;;;5.40;99.90;;;;;;5080173;28;20178;-78
2023/03/04 07:34:18;;;;;;;10.03;3.37;;;5.40;99.90;;;;;;5057632;28;20211;-77
2023/03/04 07:36:44;;;;;;;9.13;3.20;;;5.30;99.90;;;;;;5053120;28;20207;-77
2023/03/04 07:39:14;;;;;;;7.03;2.80;;;5.30;99.90;;;;;;5077970;28;20207;-76
2023/03/04 07:41:40;;;;;;;7.27;4.17;;;5.40;99.90;;;;;;5050816;28;20805;-77
2023/03/04 07:44:07;;;;;;;15.40;4.50;;;5.40;99.90;;;;;;5071684;28;20559;-77
2023/03/04 07:46:33;;;;;;;12.00;4.10;;;5.50;99.90;;;;;;5073270;28;20193;-76
2023/03/04 07:48:59;;;;;;;7.87;3.80;;;5.50;99.90;;;;;;5071832;28;20211;-77
2023/03/04 07:51:26;;;;;;;7.83;2.73;;;5.60;99.90;;;;;;5053345;28;20607;-76
2023/03/04 07:53:54;;;;;;;8.50;3.57;;;5.60;99.90;;;;;;5049392;28;20234;-76
2023/03/04 07:56:23;;;;;;;9.47;4.50;;;5.80;99.90;;;;;;5057548;28;20222;-77
2023/03/04 07:58:52;;;;;;;10.03;3.43;;;5.90;99.90;;;;;;5074522;28;20176;-77
2023/03/04 08:01:24;;;;;;;11.77;5.30;;;5.90;99.90;;;;;;5074597;28;20242;-77
2023/03/04 08:03:50;;;;;;;7.77;3.37;;;5.80;99.90;;;;;;5053727;28;20206;-78
2023/03/04 08:06:18;;;;;;;8.17;2.93;;;5.80;99.90;;;;;;5074069;28;20203;-76
2023/03/04 08:08:44;;;;;;;7.87;3.27;;;5.90;99.90;;;;;;5073384;28;20673;-76
2023/03/04 08:11:13;;;;;;;5.83;3.00;;;5.90;99.90;;;;;;5053673;28;20231;-78
2023/03/04 08:13:39;;;;;;;7.27;2.90;;;5.90;99.90;;;;;;5064990;28;20175;-77
2023/03/04 08:16:05;;;;;;;4.90;2.80;;;5.90;99.90;;;;;;5050881;28;20207;-77
2023/03/04 08:18:31;;;;;;;6.90;3.07;;;5.90;99.90;;;;;;5070418;28;20246;-77
2023/03/04 08:20:56;;;;;;;6.07;2.80;;;5.90;99.90;;;;;;5074860;28;20222;-75
2023/03/04 08:23:22;;;;;;;6.03;2.77;;;5.90;99.90;;;;;;5054329;28;20206;-76
2023/03/04 08:25:48;;;;;;;9.87;2.80;;;6.00;99.90;;;;;;5065627;28;20199;-77
2023/03/04 08:28:14;;;;;;;5.17;2.00;;;5.90;99.90;;;;;;5049062;28;20238;-75
2023/03/04 08:30:41;;;;;;;7.07;2.47;;;5.90;99.90;;;;;;5052321;28;20306;-76
2023/03/04 08:33:07;;;;;;;9.27;2.73;;;5.90;99.90;;;;;;5073237;28;20203;-77
2023/03/04 08:35:37;;;;;;;13.07;3.60;;;5.90;99.90;;;;;;5070772;28;21102;-77
2023/03/04 08:38:04;;;;;;;7.97;2.97;;;5.90;99.90;;;;;;5069315;28;20630;-77
2023/03/04 08:40:29;;;;;;;5.03;2.30;;;6.00;99.90;;;;;;5062989;28;20683;-76
2023/03/04 08:42:55;;;;;;;6.37;3.17;;;6.00;99.90;;;;;;5063606;28;20329;-77
2023/03/04 08:45:21;;;;;;;8.13;2.60;;;6.10;99.90;;;;;;5072063;28;20195;-77
2023/03/04 08:47:47;;;;;;;7.50;2.50;;;6.20;99.90;;;;;;5073116;28;20208;-76
2023/03/04 08:50:12;;;;;;;4.67;2.23;;;6.30;99.90;;;;;;5053767;28;20214;-77
2023/03/04 08:52:38;;;;;;;11.83;2.30;;;6.40;99.90;;;;;;5072156;28;20238;-77
2023/03/04 08:55:04;;;;;;;9.80;2.63;;;6.40;99.90;;;;;;5056317;28;20199;-77
2023/03/04 08:57:29;;;;;;;7.97;2.50;;;6.40;99.90;;;;;;5074802;28;20245;-78
2023/03/04 08:59:55;;;;;;;7.80;2.87;;;6.50;99.90;;;;;;5073695;28;20257;-77
2023/03/04 09:02:21;;;;;;;5.90;2.57;;;6.50;99.90;;;;;;5059450;28;20218;-77
2023/03/04 09:04:46;;;;;;;11.73;3.07;;;6.50;99.90;;;;;;5056506;28;20182;-77
2023/03/04 09:07:13;;;;;;;13.07;3.20;;;6.50;99.90;;;;;;5068019;28;20645;-77
2023/03/04 09:09:39;;;;;;;6.97;2.50;;;6.60;99.90;;;;;;5068071;28;20227;-78
2023/03/04 09:12:05;;;;;;;5.43;2.23;;;6.60;99.90;;;;;;5054415;28;20241;-77
2023/03/04 09:14:34;;;;;;;7.90;3.23;;;6.60;99.90;;;;;;5070954;28;20549;-77
2023/03/04 09:17:00;;;;;;;8.37;2.13;;;6.70;99.90;;;;;;5067020;28;20237;-76
2023/03/04 09:19:26;;;;;;;7.80;2.97;;;6.80;99.90;;;;;;5066906;28;20175;-76
2023/03/04 09:21:54;;;;;;;6.00;2.63;;;6.80;99.90;;;;;;5069972;28;20207;-77
2023/03/04 09:24:20;;;;;;;9.00;2.43;;;6.90;99.90;;;;;;5053178;28;20203;-77
2023/03/04 09:26:49;;;;;;;8.70;2.43;;;6.90;99.90;;;;;;5053143;28;20202;-77
2023/03/04 09:29:15;;;;;;;5.67;2.37;;;7.00;99.90;;;;;;5066441;28;20721;-76
2023/03/04 09:31:40;;;;;;;8.47;3.00;;;6.90;99.90;;;;;;5068097;28;20309;-77
2023/03/04 09:34:06;;;;;;;5.77;2.00;;;7.00;99.90;;;;;;5069285;28;20202;-78
2023/03/04 09:36:31;;;;;;;6.00;2.50;;;7.10;99.90;;;;;;5053931;28;20210;-77
2023/03/04 09:39:02;;;;;;;10.33;2.73;;;7.20;99.90;;;;;;5052163;28;20330;-77
2023/03/04 09:41:45;;;;;;;4.80;1.90;;;7.20;99.90;;;;;;5061448;28;20218;-76
2023/03/04 09:44:31;;;;;;;9.30;2.47;;;7.10;99.90;;;;;;5044967;28;20178;-77
2023/03/04 09:47:03;;;;;;;7.73;2.40;;;7.10;99.90;;;;;;5067983;28;20229;-76
2023/03/04 09:49:29;;;;;;;7.10;2.07;;;7.10;99.90;;;;;;5071537;28;20178;-77
2023/03/04 09:52:03;;;;;;;6.47;1.97;;;7.10;99.90;;;;;;5068363;28;20210;-75
2023/03/04 09:54:36;;;;;;;7.77;2.07;;;7.10;99.90;;;;;;5064597;28;20203;-76
2023/03/04 09:57:46;;;;;;;10.53;2.30;;;7.00;99.90;;;;;;5046750;28;20616;-77
2023/03/04 10:00:29;;;;;;;5.53;1.80;;;7.00;99.90;;;;;;4972284;28;20214;-76
2023/03/04 10:03:17;;;;;;;4.03;1.70;;;7.00;99.90;;;;;;4987403;28;20233;-77
2023/03/04 10:05:59;;;;;;;8.23;2.57;;;7.10;99.90;;;;;;5048428;28;20224;-76
2023/03/04 10:08:44;;;;;;;10.70;2.00;;;7.10;99.90;;;;;;5067284;28;20294;-76
2023/03/04 10:11:23;;;;;;;7.60;2.20;;;7.10;99.90;;;;;;5070211;28;20199;-76
2023/03/04 10:13:52;;;;;;;8.77;2.23;;;7.10;99.90;;;;;;5043026;28;20262;-75
2023/03/04 10:16:23;;;;;;;11.30;2.50;;;7.00;99.90;;;;;;5046726;28;20206;-76
2023/03/04 10:18:57;;;;;;;13.87;2.97;;;7.00;99.90;;;;;;5052434;28;20551;-76
2023/03/04 10:21:34;;;;;;;9.73;2.00;;;7.10;99.90;;;;;;5050834;28;20220;-76
2023/03/04 10:24:16;;;;;;;8.83;2.40;;;7.10;99.90;;;;;;5066447;28;20202;-77
2023/03/04 10:26:45;;;;;;;6.13;2.07;;;7.10;99.90;;;;;;5061960;28;20246;-77
2023/03/04 10:29:16;;;;;;;18.87;2.83;;;7.00;99.90;;;;;;5065876;28;20217;-77
2023/03/04 10:31:43;;;;;;;10.40;2.43;;;7.10;99.90;;;;;;5043136;28;20266;-76
2023/03/04 10:34:13;;;;;;;17.03;3.27;;;7.10;99.90;;;;;;5052099;28;20227;-77
2023/03/04 10:37:00;;;;;;;8.80;3.60;;;7.20;99.90;;;;;;5049127;28;20230;-77
2023/03/04 10:39:30;;;;;;;11.83;2.60;;;7.40;99.90;;;;;;5049048;28;20297;-77
2023/03/04 10:42:01;;;;;;;15.67;2.97;;;7.50;99.90;;;;;;5065430;28;20276;-75
2023/03/04 10:44:29;;;;;;;7.83;2.27;;;7.60;99.90;;;;;;5050253;28;20215;-76
2023/03/04 10:46:57;;;;;;;7.47;2.47;;;7.70;99.90;;;;;;5062172;28;20213;-77
2023/03/04 10:49:24;;;;;;;8.83;2.57;;;7.90;99.90;;;;;;5050190;28;20230;-77
2023/03/04 10:52:27;;;;;;;7.63;2.83;;;7.90;99.90;;;;;;5048299;28;20275;-75
2023/03/04 10:54:58;;;;;;;9.23;2.80;;;8.00;99.90;;;;;;5047834;28;20685;-77
2023/03/04 10:57:48;;;;;;;10.63;2.70;;;8.10;99.90;;;;;;5069521;28;20238;-78
2023/03/04 11:00:16;;;;;;;13.73;3.13;;;8.00;99.90;;;;;;5064821;28;20207;-78
2023/03/04 11:02:42;;;;;;;10.97;3.43;;;7.90;99.90;;;;;;5043419;28;20223;-78
2023/03/04 11:05:17;;;;;;;11.70;2.77;;;7.90;99.90;;;;;;5050234;28;20589;-78
2023/03/04 11:07:44;;;;;;;18.53;3.40;;;7.90;99.90;;;;;;5063868;28;20233;-77
2023/03/04 11:10:26;;;;;;;11.83;3.47;;;7.80;99.90;;;;;;5067391;28;20207;-78
2023/03/04 11:12:59;;;;;;;8.40;3.00;;;7.90;99.90;;;;;;5068854;28;20207;-77
2023/03/04 11:15:27;;;;;;;12.53;4.27;;;8.00;99.90;;;;;;5048933;28;20211;-78
2023/03/04 11:18:15;;;;;;;13.10;3.90;;;8.00;99.90;;;;;;5054657;28;20207;-77
2023/03/04 11:20:47;;;;;;;13.27;2.97;;;8.10;99.90;;;;;;5054394;28;20243;-77
2023/03/04 11:23:22;;;;;;;12.40;2.80;;;8.00;99.90;;;;;;5068559;28;20266;-77
2023/03/04 11:25:54;;;;;;;18.90;3.30;;;8.00;99.90;;;;;;5048107;28;20182;-77
2023/03/04 11:28:30;;;;;;;14.10;3.43;;;8.10;99.90;;;;;;5045733;28;20694;-77
2023/03/04 11:31:28;;;;;;;15.77;3.60;;;8.10;99.90;;;;;;5068214;28;20218;-76
2023/03/04 11:33:54;;;;;;;14.07;3.53;;;8.00;99.90;;;;;;5029460;28;20217;-77
2023/03/04 11:36:43;;;;;;;14.53;3.30;;;7.80;99.90;;;;;;5049719;28;20241;-76
2023/03/04 11:39:30;;;;;;;12.07;3.63;;;7.70;99.90;;;;;;5050415;28;20219;-76
2023/03/04 11:42:18;;;;;;;15.90;4.33;;;7.70;99.90;;;;;;5049069;28;20239;-76
2023/03/04 11:44:43;;;;;;;12.93;3.47;;;7.60;99.90;;;;;;5065928;28;20707;-76
2023/03/04 11:47:28;;;;;;;15.33;5.43;;;7.50;99.90;;;;;;5071073;28;20190;-77
2023/03/04 11:50:21;;;;;;;11.60;4.57;;;7.60;99.90;;;;;;5069962;28;20685;-76
2023/03/04 11:52:59;;;;;;;15.33;4.43;;;7.70;99.90;;;;;;5072273;28;20563;-77
2023/03/04 11:55:25;;;;;;;14.90;3.80;;;7.70;99.90;;;;;;5070874;28;20743;-76
2023/03/04 11:58:18;;;;;;;22.33;4.20;;;7.70;99.90;;;;;;5065969;28;20207;-76
2023/03/04 12:00:55;;;;;;;17.60;4.43;;;7.60;99.90;;;;;;5063887;28;20592;-77
2023/03/04 12:03:58;;;;;;;10.47;3.37;;;7.50;99.90;;;;;;5064315;28;20556;-76
2023/03/04 12:06:41;;;;;;;17.27;3.67;;;7.40;99.90;;;;;;5070212;28;20207;-77
2023/03/04 12:09:46;;;;;;;22.77;4.03;;;7.40;99.90;;;;;;5049858;28;20214;-77
2023/03/04 12:12:56;;;;;;;15.27;3.77;;;7.40;99.90;;;;;;5044721;28;20207;-76
2023/03/04 12:15:45;;;;;;;12.77;3.60;;;7.40;99.90;;;;;;4993275;28;20285;-77
2023/03/04 12:18:35;;;;;;;10.43;2.57;;;7.50;99.90;;;;;;4985670;28;20700;-76
2023/03/04 12:21:09;;;;;;;14.47;3.17;;;7.60;99.90;;;;;;5052831;28;20342;-77
2023/03/04 12:24:07;;;;;;;13.40;3.70;;;7.70;99.90;;;;;;5043053;28;20236;-76
2023/03/04 12:26:54;;;;;;;15.83;4.67;;;7.80;99.90;;;;;;5069164;28;20211;-75
2023/03/04 12:30:04;;;;;;;13.40;2.90;;;7.90;99.90;;;;;;5064885;28;20298;-76
2023/03/04 12:33:02;;;;;;;12.40;3.77;;;8.00;99.90;;;;;;5069606;28;20230;-77
2023/03/04 12:35:40;;;;;;;19.03;3.87;;;8.00;99.90;;;;;;5066252;28;20234;-77
2023/03/04 12:38:15;;;;;;;12.67;2.87;;;8.00;99.90;;;;;;5044927;28;20183;-78
2023/03/04 12:40:59;;;;;;;15.27;4.40;;;7.90;99.90;;;;;;5067122;28;20766;-77
2023/03/04 12:43:35;;;;;;;14.30;3.73;;;7.80;99.90;;;;;;5069792;28;20241;-77
2023/03/04 12:46:03;;;;;;;13.40;3.70;;;7.80;99.90;;;;;;5053200;28;20279;-78
2023/03/04 12:48:41;;;;;;;15.33;3.97;;;7.80;99.90;;;;;;5046591;28;20207;-77
2023/03/04 12:51:28;;;;;;;13.33;4.30;;;7.90;99.90;;;;;;5046846;28;20222;-78
2023/03/04 12:53:59;;;;;;;12.17;3.30;;;7.90;99.90;;;;;;5048056;28;20278;-77
2023/03/04 12:56:45;;;;;;;14.43;5.90;;;7.90;99.90;;;;;;5069339;28;20222;-78
2023/03/04 12:59:18;;;;;;;17.57;5.27;;;7.80;99.90;;;;;;5064512;28;20421;-77
2023/03/04 13:01:58;;;;;;;13.40;4.23;;;7.70;99.90;;;;;;5067723;28;20566;-78